sensor_id;sensor_type;location;lat;lon;timestamp;P1;durP1;ratioP1;P2;durP2;ratioP2
12441;SDS011;6285;48.804;9.220;2022-07-17T00:01:34;7.38;;;4.53;;
12441;SDS011;6285;48.804;9.220;2022-07-17T00:04:01;5.97;;;4.45;;
12441;SDS011;6285;48.804;9.220;2022-07-17T00:06:28;8.43;;;4.10;;
12441;SDS011;6285;48.804;9.220;2022-07-17T00:08:56;5.05;;;4.53;;
12441;SDS011;6285;48.804;9.220;2022-07-17T00:11:23;7.60;;;4.90;;
12441;SDS011;6285;48.804;9.220;2022-07-17T00:13:51;6.05;;;4.57;;
12441;SDS011;6285;48.804;9.220;2022-07-17T00:16:19;6.47;;;4.57;;
12441;SDS011;6285;48.804;9.220;2022-07-17T00:18:46;9.45;;;4.53;;
12441;SDS011;6285;48.804;9.220;2022-07-17T00:21:13;6.88;;;4.13;;
12441;SDS011;6285;48.804;9.220;2022-07-17T00:23:40;5.63;;;4.40;;
12441;SDS011;6285;48.804;9.220;2022-07-17T00:26:09;8.02;;;5.32;;
12441;SDS011;6285;48.804;9.220;2022-07-17T00:28:36;5.13;;;4.60;;
12441;SDS011;6285;48.804;9.220;2022-07-17T00:31:03;8.82;;;4.55;;
12441;SDS011;6285;48.804;9.220;2022-07-17T00:33:30;6.00;;;4.20;;
12441;SDS011;6285;48.804;9.220;2022-07-17T00:35:57;7.97;;;4.53;;
12441;SDS011;6285;48.804;9.220;2022-07-17T00:38:24;5.20;;;4.22;;
12441;SDS011;6285;48.804;9.220;2022-07-17T00:40:52;8.10;;;4.20;;
12441;SDS011;6285;48.804;9.220;2022-07-17T00:43:21;7.50;;;4.80;;
12441;SDS011;6285;48.804;9.220;2022-07-17T00:45:54;5.93;;;4.78;;
12441;SDS011;6285;48.804;9.220;2022-07-17T00:48:21;5.57;;;4.43;;
12441;SDS011;6285;48.804;9.220;2022-07-17T00:50:48;6.55;;;4.32;;
12441;SDS011;6285;48.804;9.220;2022-07-17T00:53:15;9.52;;;6.75;;
12441;SDS011;6285;48.804;9.220;2022-07-17T00:55:42;6.97;;;5.15;;
12441;SDS011;6285;48.804;9.220;2022-07-17T00:58:12;6.75;;;5.03;;
12441;SDS011;6285;48.804;9.220;2022-07-17T01:00:45;11.07;;;5.30;;
12441;SDS011;6285;48.804;9.220;2022-07-17T01:03:13;7.00;;;5.35;;
12441;SDS011;6285;48.804;9.220;2022-07-17T01:05:41;7.43;;;5.93;;
12441;SDS011;6285;48.804;9.220;2022-07-17T01:08:08;5.72;;;5.13;;
12441;SDS011;6285;48.804;9.220;2022-07-17T01:10:36;7.80;;;5.38;;
12441;SDS011;6285;48.804;9.220;2022-07-17T01:13:03;10.63;;;5.65;;
12441;SDS011;6285;48.804;9.220;2022-07-17T01:15:30;8.48;;;6.00;;
12441;SDS011;6285;48.804;9.220;2022-07-17T01:17:59;9.57;;;5.72;;
12441;SDS011;6285;48.804;9.220;2022-07-17T01:20:26;7.50;;;6.20;;
12441;SDS011;6285;48.804;9.220;2022-07-17T01:22:54;7.53;;;5.57;;
12441;SDS011;6285;48.804;9.220;2022-07-17T01:25:23;7.10;;;4.82;;
12441;SDS011;6285;48.804;9.220;2022-07-17T01:27:50;10.40;;;5.68;;
12441;SDS011;6285;48.804;9.220;2022-07-17T01:30:17;7.00;;;5.57;;
12441;SDS011;6285;48.804;9.220;2022-07-17T01:32:44;7.20;;;5.10;;
12441;SDS011;6285;48.804;9.220;2022-07-17T01:35:12;9.25;;;5.40;;
12441;SDS011;6285;48.804;9.220;2022-07-17T01:37:40;8.20;;;5.68;;
12441;SDS011;6285;48.804;9.220;2022-07-17T01:40:11;5.90;;;5.30;;
12441;SDS011;6285;48.804;9.220;2022-07-17T01:42:39;7.28;;;5.43;;
12441;SDS011;6285;48.804;9.220;2022-07-17T01:45:08;8.27;;;6.00;;
12441;SDS011;6285;48.804;9.220;2022-07-17T01:47:36;7.15;;;5.60;;
12441;SDS011;6285;48.804;9.220;2022-07-17T01:50:03;6.57;;;5.15;;
12441;SDS011;6285;48.804;9.220;2022-07-17T01:52:31;8.93;;;5.30;;
12441;SDS011;6285;48.804;9.220;2022-07-17T01:54:58;7.32;;;5.38;;
12441;SDS011;6285;48.804;9.220;2022-07-17T01:57:26;5.82;;;5.20;;
12441;SDS011;6285;48.804;9.220;2022-07-17T01:59:53;7.18;;;5.35;;
12441;SDS011;6285;48.804;9.220;2022-07-17T02:02:20;5.97;;;5.38;;
12441;SDS011;6285;48.804;9.220;2022-07-17T02:04:47;6.32;;;5.18;;
12441;SDS011;6285;48.804;9.220;2022-07-17T02:07:14;6.38;;;5.47;;
12441;SDS011;6285;48.804;9.220;2022-07-17T02:09:41;8.93;;;5.50;;
12441;SDS011;6285;48.804;9.220;2022-07-17T02:12:08;7.10;;;5.45;;
12441;SDS011;6285;48.804;9.220;2022-07-17T02:14:37;6.45;;;5.28;;
12441;SDS011;6285;48.804;9.220;2022-07-17T02:17:04;8.63;;;5.30;;
12441;SDS011;6285;48.804;9.220;2022-07-17T02:19:31;7.93;;;5.60;;
12441;SDS011;6285;48.804;9.220;2022-07-17T02:21:58;7.00;;;5.50;;
12441;SDS011;6285;48.804;9.220;2022-07-17T02:24:25;6.30;;;5.10;;
12441;SDS011;6285;48.804;9.220;2022-07-17T02:26:52;6.97;;;5.43;;
12441;SDS011;6285;48.804;9.220;2022-07-17T02:29:19;8.13;;;6.00;;
12441;SDS011;6285;48.804;9.220;2022-07-17T02:31:48;7.70;;;5.30;;
12441;SDS011;6285;48.804;9.220;2022-07-17T02:34:15;6.03;;;5.28;;
12441;SDS011;6285;48.804;9.220;2022-07-17T02:36:42;8.27;;;5.90;;
12441;SDS011;6285;48.804;9.220;2022-07-17T02:39:09;7.18;;;4.95;;
12441;SDS011;6285;48.804;9.220;2022-07-17T02:41:36;6.35;;;5.35;;
12441;SDS011;6285;48.804;9.220;2022-07-17T02:44:03;8.35;;;5.97;;
12441;SDS011;6285;48.804;9.220;2022-07-17T02:46:30;7.90;;;5.72;;
12441;SDS011;6285;48.804;9.220;2022-07-17T02:48:59;8.45;;;5.93;;
12441;SDS011;6285;48.804;9.220;2022-07-17T02:51:26;8.95;;;5.68;;
12441;SDS011;6285;48.804;9.220;2022-07-17T02:53:53;7.70;;;5.63;;
12441;SDS011;6285;48.804;9.220;2022-07-17T02:56:20;8.77;;;5.47;;
12441;SDS011;6285;48.804;9.220;2022-07-17T02:58:47;7.68;;;5.53;;
12441;SDS011;6285;48.804;9.220;2022-07-17T03:01:14;8.10;;;5.50;;
12441;SDS011;6285;48.804;9.220;2022-07-17T03:03:41;9.27;;;5.47;;
12441;SDS011;6285;48.804;9.220;2022-07-17T03:06:09;8.90;;;6.28;;
12441;SDS011;6285;48.804;9.220;2022-07-17T03:08:36;8.20;;;6.13;;
12441;SDS011;6285;48.804;9.220;2022-07-17T03:11:03;7.28;;;5.65;;
12441;SDS011;6285;48.804;9.220;2022-07-17T03:13:30;7.80;;;6.03;;
12441;SDS011;6285;48.804;9.220;2022-07-17T03:15:57;7.65;;;5.82;;
12441;SDS011;6285;48.804;9.220;2022-07-17T03:18:24;8.52;;;6.05;;
12441;SDS011;6285;48.804;9.220;2022-07-17T03:20:51;7.60;;;5.80;;
12441;SDS011;6285;48.804;9.220;2022-07-17T03:23:20;6.28;;;5.38;;
12441;SDS011;6285;48.804;9.220;2022-07-17T03:25:47;7.97;;;5.82;;
12441;SDS011;6285;48.804;9.220;2022-07-17T03:28:14;7.60;;;5.50;;
12441;SDS011;6285;48.804;9.220;2022-07-17T03:30:41;8.35;;;5.72;;
12441;SDS011;6285;48.804;9.220;2022-07-17T03:33:08;7.43;;;5.53;;
12441;SDS011;6285;48.804;9.220;2022-07-17T03:35:35;7.53;;;5.18;;
12441;SDS011;6285;48.804;9.220;2022-07-17T03:38:02;6.88;;;5.10;;
12441;SDS011;6285;48.804;9.220;2022-07-17T03:40:31;6.78;;;5.53;;
12441;SDS011;6285;48.804;9.220;2022-07-17T03:42:58;8.00;;;5.60;;
12441;SDS011;6285;48.804;9.220;2022-07-17T03:45:25;7.30;;;5.45;;
12441;SDS011;6285;48.804;9.220;2022-07-17T03:47:52;7.72;;;5.68;;
12441;SDS011;6285;48.804;9.220;2022-07-17T03:50:19;7.43;;;5.25;;
12441;SDS011;6285;48.804;9.220;2022-07-17T03:52:46;7.72;;;5.07;;
12441;SDS011;6285;48.804;9.220;2022-07-17T03:55:13;8.30;;;5.20;;
12441;SDS011;6285;48.804;9.220;2022-07-17T03:57:42;7.70;;;5.38;;
12441;SDS011;6285;48.804;9.220;2022-07-17T04:00:09;7.13;;;5.95;;
12441;SDS011;6285;48.804;9.220;2022-07-17T04:02:36;5.90;;;5.20;;
12441;SDS011;6285;48.804;9.220;2022-07-17T04:05:03;6.32;;;5.25;;
12441;SDS011;6285;48.804;9.220;2022-07-17T04:07:34;7.03;;;5.35;;
12441;SDS011;6285;48.804;9.220;2022-07-17T04:10:01;8.68;;;5.28;;
12441;SDS011;6285;48.804;9.220;2022-07-17T04:12:28;7.00;;;5.43;;
12441;SDS011;6285;48.804;9.220;2022-07-17T04:14:56;6.10;;;5.38;;
12441;SDS011;6285;48.804;9.220;2022-07-17T04:17:24;6.18;;;5.57;;
12441;SDS011;6285;48.804;9.220;2022-07-17T04:19:51;7.65;;;5.80;;
12441;SDS011;6285;48.804;9.220;2022-07-17T04:22:18;8.02;;;5.35;;
12441;SDS011;6285;48.804;9.220;2022-07-17T04:24:45;6.18;;;5.38;;
12441;SDS011;6285;48.804;9.220;2022-07-17T04:27:13;7.20;;;5.30;;
12441;SDS011;6285;48.804;9.220;2022-07-17T04:29:40;6.32;;;5.20;;
12441;SDS011;6285;48.804;9.220;2022-07-17T04:32:09;6.90;;;5.32;;
12441;SDS011;6285;48.804;9.220;2022-07-17T04:34:36;7.45;;;5.00;;
12441;SDS011;6285;48.804;9.220;2022-07-17T04:37:04;7.13;;;5.22;;
12441;SDS011;6285;48.804;9.220;2022-07-17T04:39:31;9.88;;;5.18;;
12441;SDS011;6285;48.804;9.220;2022-07-17T04:41:58;5.60;;;5.10;;
12441;SDS011;6285;48.804;9.220;2022-07-17T04:44:25;6.82;;;5.45;;
12441;SDS011;6285;48.804;9.220;2022-07-17T04:46:52;7.55;;;4.97;;
12441;SDS011;6285;48.804;9.220;2022-07-17T04:49:22;7.70;;;4.72;;
12441;SDS011;6285;48.804;9.220;2022-07-17T04:51:49;5.93;;;5.03;;
12441;SDS011;6285;48.804;9.220;2022-07-17T04:54:16;6.45;;;4.93;;
12441;SDS011;6285;48.804;9.220;2022-07-17T04:56:43;8.27;;;5.72;;
12441;SDS011;6285;48.804;9.220;2022-07-17T04:59:10;6.47;;;5.10;;
12441;SDS011;6285;48.804;9.220;2022-07-17T05:01:37;7.47;;;5.22;;
12441;SDS011;6285;48.804;9.220;2022-07-17T05:04:04;7.18;;;5.57;;
12441;SDS011;6285;48.804;9.220;2022-07-17T05:06:33;6.97;;;5.20;;
12441;SDS011;6285;48.804;9.220;2022-07-17T05:09:00;5.60;;;5.03;;
12441;SDS011;6285;48.804;9.220;2022-07-17T05:11:27;6.13;;;5.35;;
12441;SDS011;6285;48.804;9.220;2022-07-17T05:13:54;7.47;;;5.20;;
12441;SDS011;6285;48.804;9.220;2022-07-17T05:16:21;6.50;;;5.35;;
12441;SDS011;6285;48.804;9.220;2022-07-17T05:18:48;6.07;;;5.28;;
12441;SDS011;6285;48.804;9.220;2022-07-17T05:21:15;6.57;;;5.22;;
12441;SDS011;6285;48.804;9.220;2022-07-17T05:23:44;9.27;;;5.43;;
12441;SDS011;6285;48.804;9.220;2022-07-17T05:26:11;6.30;;;5.50;;
12441;SDS011;6285;48.804;9.220;2022-07-17T05:28:38;8.13;;;5.40;;
12441;SDS011;6285;48.804;9.220;2022-07-17T05:31:05;7.95;;;5.60;;
12441;SDS011;6285;48.804;9.220;2022-07-17T05:33:32;7.15;;;5.72;;
12441;SDS011;6285;48.804;9.220;2022-07-17T05:36:00;6.32;;;5.60;;
12441;SDS011;6285;48.804;9.220;2022-07-17T05:38:27;7.10;;;5.38;;
12441;SDS011;6285;48.804;9.220;2022-07-17T05:40:55;7.20;;;6.30;;
12441;SDS011;6285;48.804;9.220;2022-07-17T05:43:22;6.28;;;5.60;;
12441;SDS011;6285;48.804;9.220;2022-07-17T05:45:50;6.25;;;5.60;;
12441;SDS011;6285;48.804;9.220;2022-07-17T05:48:19;7.10;;;5.72;;
12441;SDS011;6285;48.804;9.220;2022-07-17T05:50:46;9.18;;;5.53;;
12441;SDS011;6285;48.804;9.220;2022-07-17T05:53:13;6.50;;;5.90;;
12441;SDS011;6285;48.804;9.220;2022-07-17T05:55:40;6.20;;;5.13;;
12441;SDS011;6285;48.804;9.220;2022-07-17T05:58:09;5.40;;;4.72;;
12441;SDS011;6285;48.804;9.220;2022-07-17T06:00:36;7.00;;;4.97;;
12441;SDS011;6285;48.804;9.220;2022-07-17T06:03:04;5.60;;;5.03;;
12441;SDS011;6285;48.804;9.220;2022-07-17T06:05:31;5.10;;;4.57;;
12441;SDS011;6285;48.804;9.220;2022-07-17T06:07:58;5.65;;;4.85;;
12441;SDS011;6285;48.804;9.220;2022-07-17T06:10:25;8.50;;;4.72;;
12441;SDS011;6285;48.804;9.220;2022-07-17T06:12:53;5.30;;;4.80;;
12441;SDS011;6285;48.804;9.220;2022-07-17T06:15:22;5.15;;;4.65;;
12441;SDS011;6285;48.804;9.220;2022-07-17T06:17:49;7.32;;;5.40;;
12441;SDS011;6285;48.804;9.220;2022-07-17T06:20:17;5.13;;;4.68;;
12441;SDS011;6285;48.804;9.220;2022-07-17T06:22:44;5.80;;;4.63;;
12441;SDS011;6285;48.804;9.220;2022-07-17T06:25:11;7.63;;;4.53;;
12441;SDS011;6285;48.804;9.220;2022-07-17T06:27:39;5.28;;;4.00;;
12441;SDS011;6285;48.804;9.220;2022-07-17T06:30:06;4.95;;;3.70;;
12441;SDS011;6285;48.804;9.220;2022-07-17T06:32:35;4.10;;;3.70;;
12441;SDS011;6285;48.804;9.220;2022-07-17T06:35:02;5.03;;;3.88;;
12441;SDS011;6285;48.804;9.220;2022-07-17T06:37:29;4.95;;;3.72;;
12441;SDS011;6285;48.804;9.220;2022-07-17T06:39:57;4.10;;;3.70;;
12441;SDS011;6285;48.804;9.220;2022-07-17T06:42:24;4.10;;;3.22;;
12441;SDS011;6285;48.804;9.220;2022-07-17T06:44:51;5.10;;;3.90;;
12441;SDS011;6285;48.804;9.220;2022-07-17T06:47:18;3.65;;;3.35;;
12441;SDS011;6285;48.804;9.220;2022-07-17T06:49:47;3.88;;;3.42;;
12441;SDS011;6285;48.804;9.220;2022-07-17T06:52:14;4.30;;;3.20;;
12441;SDS011;6285;48.804;9.220;2022-07-17T06:54:41;7.53;;;3.30;;
12441;SDS011;6285;48.804;9.220;2022-07-17T06:57:08;5.03;;;3.55;;
12441;SDS011;6285;48.804;9.220;2022-07-17T06:59:35;4.20;;;2.88;;
12441;SDS011;6285;48.804;9.220;2022-07-17T07:02:02;4.13;;;3.05;;
12441;SDS011;6285;48.804;9.220;2022-07-17T07:04:29;4.15;;;3.28;;
12441;SDS011;6285;48.804;9.220;2022-07-17T07:06:58;5.28;;;2.85;;
12441;SDS011;6285;48.804;9.220;2022-07-17T07:09:25;3.95;;;3.03;;
12441;SDS011;6285;48.804;9.220;2022-07-17T07:11:52;3.50;;;2.63;;
12441;SDS011;6285;48.804;9.220;2022-07-17T07:14:19;3.95;;;2.95;;
12441;SDS011;6285;48.804;9.220;2022-07-17T07:16:46;4.00;;;2.75;;
12441;SDS011;6285;48.804;9.220;2022-07-17T07:19:13;3.88;;;2.80;;
12441;SDS011;6285;48.804;9.220;2022-07-17T07:21:40;4.32;;;2.88;;
12441;SDS011;6285;48.804;9.220;2022-07-17T07:24:08;5.10;;;2.80;;
12441;SDS011;6285;48.804;9.220;2022-07-17T07:26:35;3.50;;;2.90;;
12441;SDS011;6285;48.804;9.220;2022-07-17T07:29:02;3.63;;;2.63;;
12441;SDS011;6285;48.804;9.220;2022-07-17T07:31:29;3.63;;;2.55;;
12441;SDS011;6285;48.804;9.220;2022-07-17T07:33:57;4.93;;;2.78;;
12441;SDS011;6285;48.804;9.220;2022-07-17T07:36:24;4.05;;;2.65;;
12441;SDS011;6285;48.804;9.220;2022-07-17T07:38:52;4.80;;;2.50;;
12441;SDS011;6285;48.804;9.220;2022-07-17T07:41:20;3.53;;;2.40;;
12441;SDS011;6285;48.804;9.220;2022-07-17T07:43:47;2.78;;;2.15;;
12441;SDS011;6285;48.804;9.220;2022-07-17T07:46:14;2.58;;;2.00;;
12441;SDS011;6285;48.804;9.220;2022-07-17T07:48:41;2.83;;;2.28;;
12441;SDS011;6285;48.804;9.220;2022-07-17T07:51:09;4.20;;;2.50;;
12441;SDS011;6285;48.804;9.220;2022-07-17T07:53:36;5.30;;;2.70;;
12441;SDS011;6285;48.804;9.220;2022-07-17T07:56:03;3.30;;;2.90;;
12441;SDS011;6285;48.804;9.220;2022-07-17T07:58:31;2.95;;;2.28;;
12441;SDS011;6285;48.804;9.220;2022-07-17T08:00:58;3.95;;;2.30;;
12441;SDS011;6285;48.804;9.220;2022-07-17T08:03:25;2.30;;;1.98;;
12441;SDS011;6285;48.804;9.220;2022-07-17T08:05:52;3.40;;;2.13;;
12441;SDS011;6285;48.804;9.220;2022-07-17T08:08:19;3.22;;;2.20;;
12441;SDS011;6285;48.804;9.220;2022-07-17T08:10:46;2.40;;;2.20;;
12441;SDS011;6285;48.804;9.220;2022-07-17T08:13:13;2.90;;;2.60;;
12441;SDS011;6285;48.804;9.220;2022-07-17T08:15:43;3.22;;;2.20;;
12441;SDS011;6285;48.804;9.220;2022-07-17T08:18:10;2.35;;;2.15;;
12441;SDS011;6285;48.804;9.220;2022-07-17T08:20:37;2.92;;;2.55;;
12441;SDS011;6285;48.804;9.220;2022-07-17T08:23:04;3.60;;;2.65;;
12441;SDS011;6285;48.804;9.220;2022-07-17T08:25:31;3.67;;;2.40;;
12441;SDS011;6285;48.804;9.220;2022-07-17T08:27:59;2.65;;;2.20;;
12441;SDS011;6285;48.804;9.220;2022-07-17T08:30:26;4.57;;;2.42;;
12441;SDS011;6285;48.804;9.220;2022-07-17T08:32:56;3.40;;;2.40;;
12441;SDS011;6285;48.804;9.220;2022-07-17T08:35:23;4.60;;;2.20;;
12441;SDS011;6285;48.804;9.220;2022-07-17T08:37:50;3.38;;;2.20;;
12441;SDS011;6285;48.804;9.220;2022-07-17T08:40:18;2.40;;;2.00;;
12441;SDS011;6285;48.804;9.220;2022-07-17T08:42:47;2.28;;;2.10;;
12441;SDS011;6285;48.804;9.220;2022-07-17T08:45:14;3.78;;;2.25;;
12441;SDS011;6285;48.804;9.220;2022-07-17T08:47:41;5.00;;;2.30;;
12441;SDS011;6285;48.804;9.220;2022-07-17T08:50:10;3.03;;;2.20;;
12441;SDS011;6285;48.804;9.220;2022-07-17T08:52:38;2.17;;;2.00;;
12441;SDS011;6285;48.804;9.220;2022-07-17T08:55:07;3.00;;;2.30;;
12441;SDS011;6285;48.804;9.220;2022-07-17T08:57:36;3.78;;;2.33;;
12441;SDS011;6285;48.804;9.220;2022-07-17T09:00:05;2.13;;;1.95;;
12441;SDS011;6285;48.804;9.220;2022-07-17T09:02:32;4.70;;;2.15;;
12441;SDS011;6285;48.804;9.220;2022-07-17T09:05:00;3.08;;;2.17;;
12441;SDS011;6285;48.804;9.220;2022-07-17T09:07:28;5.15;;;3.15;;
12441;SDS011;6285;48.804;9.220;2022-07-17T09:09:56;2.63;;;2.00;;
12441;SDS011;6285;48.804;9.220;2022-07-17T09:12:24;2.58;;;2.13;;
12441;SDS011;6285;48.804;9.220;2022-07-17T09:14:53;2.00;;;1.80;;
12441;SDS011;6285;48.804;9.220;2022-07-17T09:17:20;2.30;;;2.10;;
12441;SDS011;6285;48.804;9.220;2022-07-17T09:19:51;2.38;;;1.92;;
12441;SDS011;6285;48.804;9.220;2022-07-17T09:22:21;2.33;;;1.75;;
12441;SDS011;6285;48.804;9.220;2022-07-17T09:24:51;3.00;;;2.70;;
12441;SDS011;6285;48.804;9.220;2022-07-17T09:27:30;2.20;;;1.92;;
12441;SDS011;6285;48.804;9.220;2022-07-17T09:29:58;2.88;;;1.50;;
12441;SDS011;6285;48.804;9.220;2022-07-17T09:32:28;1.55;;;1.45;;
12441;SDS011;6285;48.804;9.220;2022-07-17T09:34:57;3.17;;;2.15;;
12441;SDS011;6285;48.804;9.220;2022-07-17T09:37:25;3.15;;;1.80;;
12441;SDS011;6285;48.804;9.220;2022-07-17T09:39:55;3.53;;;2.25;;
12441;SDS011;6285;48.804;9.220;2022-07-17T09:42:27;2.03;;;1.83;;
12441;SDS011;6285;48.804;9.220;2022-07-17T09:44:59;2.47;;;1.73;;
12441;SDS011;6285;48.804;9.220;2022-07-17T09:47:27;2.20;;;1.92;;
12441;SDS011;6285;48.804;9.220;2022-07-17T09:49:56;2.00;;;1.48;;
12441;SDS011;6285;48.804;9.220;2022-07-17T09:52:24;2.38;;;1.75;;
12441;SDS011;6285;48.804;9.220;2022-07-17T09:54:51;2.47;;;1.73;;
12441;SDS011;6285;48.804;9.220;2022-07-17T09:57:20;3.05;;;2.75;;
12441;SDS011;6285;48.804;9.220;2022-07-17T09:59:58;2.50;;;1.70;;
12441;SDS011;6285;48.804;9.220;2022-07-17T10:02:27;2.15;;;1.55;;
12441;SDS011;6285;48.804;9.220;2022-07-17T10:04:55;2.15;;;1.70;;
12441;SDS011;6285;48.804;9.220;2022-07-17T10:07:23;1.88;;;1.52;;
12441;SDS011;6285;48.804;9.220;2022-07-17T10:09:50;4.03;;;1.92;;
12441;SDS011;6285;48.804;9.220;2022-07-17T10:12:17;1.88;;;1.38;;
12441;SDS011;6285;48.804;9.220;2022-07-17T10:14:47;1.77;;;1.50;;
12441;SDS011;6285;48.804;9.220;2022-07-17T10:17:19;3.97;;;1.90;;
12441;SDS011;6285;48.804;9.220;2022-07-17T10:19:47;2.50;;;1.40;;
12441;SDS011;6285;48.804;9.220;2022-07-17T10:22:15;3.22;;;1.63;;
12441;SDS011;6285;48.804;9.220;2022-07-17T10:24:45;4.13;;;1.90;;
12441;SDS011;6285;48.804;9.220;2022-07-17T10:27:17;2.50;;;1.65;;
12441;SDS011;6285;48.804;9.220;2022-07-17T10:29:45;1.85;;;1.70;;
12441;SDS011;6285;48.804;9.220;2022-07-17T10:32:15;3.08;;;1.50;;
12441;SDS011;6285;48.804;9.220;2022-07-17T10:34:44;3.03;;;1.90;;
12441;SDS011;6285;48.804;9.220;2022-07-17T10:37:17;2.80;;;2.00;;
12441;SDS011;6285;48.804;9.220;2022-07-17T10:39:57;1.40;;;1.30;;
12441;SDS011;6285;48.804;9.220;2022-07-17T10:42:36;2.20;;;1.60;;
12441;SDS011;6285;48.804;9.220;2022-07-17T10:45:09;4.18;;;1.90;;
12441;SDS011;6285;48.804;9.220;2022-07-17T10:47:44;1.88;;;1.75;;
12441;SDS011;6285;48.804;9.220;2022-07-17T10:50:16;2.20;;;1.60;;
12441;SDS011;6285;48.804;9.220;2022-07-17T10:52:43;2.10;;;1.90;;
12441;SDS011;6285;48.804;9.220;2022-07-17T10:55:17;1.80;;;1.40;;
12441;SDS011;6285;48.804;9.220;2022-07-17T10:57:48;2.33;;;1.45;;
12441;SDS011;6285;48.804;9.220;2022-07-17T11:00:16;1.88;;;1.70;;
12441;SDS011;6285;48.804;9.220;2022-07-17T11:02:44;1.58;;;1.48;;
12441;SDS011;6285;48.804;9.220;2022-07-17T11:05:12;1.95;;;1.85;;
12441;SDS011;6285;48.804;9.220;2022-07-17T11:07:56;1.75;;;1.48;;
12441;SDS011;6285;48.804;9.220;2022-07-17T11:10:27;2.58;;;1.73;;
12441;SDS011;6285;48.804;9.220;2022-07-17T11:12:55;2.00;;;1.88;;
12441;SDS011;6285;48.804;9.220;2022-07-17T11:15:22;1.90;;;1.50;;
12441;SDS011;6285;48.804;9.220;2022-07-17T11:17:50;1.52;;;1.42;;
12441;SDS011;6285;48.804;9.220;2022-07-17T11:20:17;3.50;;;1.50;;
12441;SDS011;6285;48.804;9.220;2022-07-17T11:22:44;1.88;;;1.70;;
12441;SDS011;6285;48.804;9.220;2022-07-17T11:25:11;1.55;;;1.45;;
12441;SDS011;6285;48.804;9.220;2022-07-17T11:27:38;1.85;;;1.75;;
12441;SDS011;6285;48.804;9.220;2022-07-17T11:30:09;2.50;;;1.50;;
12441;SDS011;6285;48.804;9.220;2022-07-17T11:32:41;3.15;;;1.58;;
12441;SDS011;6285;48.804;9.220;2022-07-17T11:35:17;1.85;;;1.67;;
12441;SDS011;6285;48.804;9.220;2022-07-17T11:37:44;5.47;;;1.90;;
12441;SDS011;6285;48.804;9.220;2022-07-17T11:40:11;1.73;;;1.60;;
12441;SDS011;6285;48.804;9.220;2022-07-17T11:42:38;1.95;;;1.60;;
12441;SDS011;6285;48.804;9.220;2022-07-17T11:45:06;2.00;;;1.60;;
12441;SDS011;6285;48.804;9.220;2022-07-17T11:47:33;1.58;;;1.48;;
12441;SDS011;6285;48.804;9.220;2022-07-17T11:50:04;2.03;;;1.70;;
12441;SDS011;6285;48.804;9.220;2022-07-17T11:52:40;1.58;;;1.48;;
12441;SDS011;6285;48.804;9.220;2022-07-17T11:55:07;1.85;;;1.60;;
12441;SDS011;6285;48.804;9.220;2022-07-17T11:57:41;2.15;;;1.77;;
12441;SDS011;6285;48.804;9.220;2022-07-17T12:00:10;2.60;;;1.77;;
12441;SDS011;6285;48.804;9.220;2022-07-17T12:02:37;3.28;;;1.70;;
12441;SDS011;6285;48.804;9.220;2022-07-17T12:05:04;3.40;;;1.80;;
12441;SDS011;6285;48.804;9.220;2022-07-17T12:07:40;1.67;;;1.58;;
12441;SDS011;6285;48.804;9.220;2022-07-17T12:10:11;2.08;;;1.73;;
12441;SDS011;6285;48.804;9.220;2022-07-17T12:12:38;2.10;;;1.90;;
12441;SDS011;6285;48.804;9.220;2022-07-17T12:15:06;2.38;;;1.50;;
12441;SDS011;6285;48.804;9.220;2022-07-17T12:17:37;2.47;;;2.15;;
12441;SDS011;6285;48.804;9.220;2022-07-17T12:20:05;2.42;;;1.80;;
12441;SDS011;6285;48.804;9.220;2022-07-17T12:22:42;3.85;;;1.85;;
12441;SDS011;6285;48.804;9.220;2022-07-17T12:25:10;3.35;;;2.00;;
12441;SDS011;6285;48.804;9.220;2022-07-17T12:27:48;2.03;;;1.77;;
12441;SDS011;6285;48.804;9.220;2022-07-17T12:30:15;4.85;;;1.80;;
12441;SDS011;6285;48.804;9.220;2022-07-17T12:32:42;1.70;;;1.52;;
12441;SDS011;6285;48.804;9.220;2022-07-17T12:35:09;2.30;;;1.83;;
12441;SDS011;6285;48.804;9.220;2022-07-17T12:37:36;3.05;;;1.70;;
12441;SDS011;6285;48.804;9.220;2022-07-17T12:40:05;2.35;;;1.65;;
12441;SDS011;6285;48.804;9.220;2022-07-17T12:42:34;2.33;;;1.70;;
12441;SDS011;6285;48.804;9.220;2022-07-17T12:45:02;1.60;;;1.50;;
12441;SDS011;6285;48.804;9.220;2022-07-17T12:47:29;1.55;;;1.30;;
12441;SDS011;6285;48.804;9.220;2022-07-17T12:49:56;3.15;;;1.48;;
12441;SDS011;6285;48.804;9.220;2022-07-17T12:52:23;1.58;;;1.30;;
12441;SDS011;6285;48.804;9.220;2022-07-17T12:54:50;2.80;;;1.90;;
12441;SDS011;6285;48.804;9.220;2022-07-17T12:57:19;1.60;;;1.50;;
12441;SDS011;6285;48.804;9.220;2022-07-17T12:59:45;2.03;;;1.80;;
12441;SDS011;6285;48.804;9.220;2022-07-17T13:02:12;1.65;;;1.40;;
12441;SDS011;6285;48.804;9.220;2022-07-17T13:04:40;3.80;;;1.67;;
12441;SDS011;6285;48.804;9.220;2022-07-17T13:07:07;2.17;;;1.67;;
12441;SDS011;6285;48.804;9.220;2022-07-17T13:09:34;2.55;;;1.60;;
12441;SDS011;6285;48.804;9.220;2022-07-17T13:12:01;2.80;;;1.48;;
12441;SDS011;6285;48.804;9.220;2022-07-17T13:14:30;2.55;;;1.92;;
12441;SDS011;6285;48.804;9.220;2022-07-17T13:16:57;2.60;;;1.83;;
12441;SDS011;6285;48.804;9.220;2022-07-17T13:19:25;2.38;;;1.88;;
12441;SDS011;6285;48.804;9.220;2022-07-17T13:21:52;1.92;;;1.83;;
12441;SDS011;6285;48.804;9.220;2022-07-17T13:24:19;2.55;;;1.92;;
12441;SDS011;6285;48.804;9.220;2022-07-17T13:26:46;2.10;;;1.90;;
12441;SDS011;6285;48.804;9.220;2022-07-17T13:29:13;4.25;;;2.00;;
12441;SDS011;6285;48.804;9.220;2022-07-17T13:31:41;7.50;;;6.85;;
12441;SDS011;6285;48.804;9.220;2022-07-17T13:34:07;2.55;;;2.13;;
12441;SDS011;6285;48.804;9.220;2022-07-17T13:36:35;2.55;;;2.35;;
12441;SDS011;6285;48.804;9.220;2022-07-17T13:39:01;1.73;;;1.40;;
12441;SDS011;6285;48.804;9.220;2022-07-17T13:41:28;2.13;;;1.60;;
12441;SDS011;6285;48.804;9.220;2022-07-17T13:43:55;5.25;;;1.70;;
12441;SDS011;6285;48.804;9.220;2022-07-17T13:46:23;3.97;;;3.13;;
12441;SDS011;6285;48.804;9.220;2022-07-17T13:48:51;3.58;;;1.80;;
12441;SDS011;6285;48.804;9.220;2022-07-17T13:51:18;2.30;;;2.10;;
12441;SDS011;6285;48.804;9.220;2022-07-17T13:53:45;1.60;;;1.50;;
12441;SDS011;6285;48.804;9.220;2022-07-17T13:56:11;1.77;;;1.60;;
12441;SDS011;6285;48.804;9.220;2022-07-17T13:58:38;2.38;;;1.50;;
12441;SDS011;6285;48.804;9.220;2022-07-17T14:01:06;3.15;;;1.48;;
12441;SDS011;6285;48.804;9.220;2022-07-17T14:03:33;1.45;;;1.33;;
12441;SDS011;6285;48.804;9.220;2022-07-17T14:06:01;2.03;;;1.92;;
12441;SDS011;6285;48.804;9.220;2022-07-17T14:08:28;2.45;;;1.42;;
12441;SDS011;6285;48.804;9.220;2022-07-17T14:10:55;3.35;;;1.58;;
12441;SDS011;6285;48.804;9.220;2022-07-17T14:13:23;1.60;;;1.50;;
12441;SDS011;6285;48.804;9.220;2022-07-17T14:15:50;1.50;;;1.40;;
12441;SDS011;6285;48.804;9.220;2022-07-17T14:18:16;3.33;;;1.50;;
12441;SDS011;6285;48.804;9.220;2022-07-17T14:20:44;2.33;;;1.60;;
12441;SDS011;6285;48.804;9.220;2022-07-17T14:23:12;3.78;;;1.90;;
12441;SDS011;6285;48.804;9.220;2022-07-17T14:25:41;1.65;;;1.35;;
12441;SDS011;6285;48.804;9.220;2022-07-17T14:28:08;1.90;;;1.50;;
12441;SDS011;6285;48.804;9.220;2022-07-17T14:30:36;4.43;;;3.40;;
12441;SDS011;6285;48.804;9.220;2022-07-17T14:33:03;1.40;;;1.30;;
12441;SDS011;6285;48.804;9.220;2022-07-17T14:35:30;1.45;;;1.35;;
12441;SDS011;6285;48.804;9.220;2022-07-17T14:37:57;1.85;;;1.30;;
12441;SDS011;6285;48.804;9.220;2022-07-17T14:40:26;1.55;;;1.45;;
12441;SDS011;6285;48.804;9.220;2022-07-17T14:42:53;2.05;;;1.60;;
12441;SDS011;6285;48.804;9.220;2022-07-17T14:45:20;1.80;;;1.70;;
12441;SDS011;6285;48.804;9.220;2022-07-17T14:47:47;1.75;;;1.65;;
12441;SDS011;6285;48.804;9.220;2022-07-17T14:50:14;1.80;;;1.50;;
12441;SDS011;6285;48.804;9.220;2022-07-17T14:52:41;1.85;;;1.73;;
12441;SDS011;6285;48.804;9.220;2022-07-17T14:55:08;2.40;;;1.58;;
12441;SDS011;6285;48.804;9.220;2022-07-17T14:57:36;3.80;;;1.80;;
12441;SDS011;6285;48.804;9.220;2022-07-17T15:00:04;2.35;;;1.75;;
12441;SDS011;6285;48.804;9.220;2022-07-17T15:02:31;2.30;;;1.60;;
12441;SDS011;6285;48.804;9.220;2022-07-17T15:04:58;1.60;;;1.50;;